Time;durP1;ratioP1;P1;durP2;ratioP2;P2;SDS_P1;SDS_P2;PMS_P1;PMS_P2;Temp;Humidity;BMP_temperature;BMP_pressure;BME280_temperature;BME280_humidity;BME280_pressure;Samples;Min_cycle;Max_cycle;Signal;HPM_P1;HPM_P2
2023/03/17 00:00:09;;;;;;;0.20;0.20;;;8.60;99.90;;;;;;5019900;28;20397;-60
2023/03/17 00:02:35;;;;;;;0.10;0.10;;;8.60;99.90;;;;;;5029499;28;20485;-61
2023/03/17 00:05:01;;;;;;;0.00;0.00;;;8.60;99.90;;;;;;5028885;28;20049;-60
2023/03/17 00:07:27;;;;;;;0.40;0.40;;;8.60;99.90;;;;;;5025028;28;20034;-61
2023/03/17 00:09:53;;;;;;;0.10;0.10;;;8.60;99.90;;;;;;5028312;28;20056;-60
2023/03/17 00:12:19;;;;;;;0.10;0.10;;;8.60;99.90;;;;;;5027009;28;20080;-61
2023/03/17 00:14:45;;;;;;;0.50;0.50;;;8.60;99.90;;;;;;5028738;28;20396;-60
2023/03/17 00:17:13;;;;;;;0.13;0.13;;;8.60;99.90;;;;;;5027958;28;20045;-60
2023/03/17 00:19:40;;;;;;;0.10;0.10;;;8.60;99.90;;;;;;5023998;28;20084;-61
2023/03/17 00:22:16;;;;;;;0.10;0.10;;;8.60;99.90;;;;;;5025994;28;20045;-61
2023/03/17 00:24:42;;;;;;;0.10;0.10;;;8.60;99.90;;;;;;5024393;28;20057;-60
2023/03/17 00:27:12;;;;;;;0.20;0.20;;;8.60;99.90;;;;;;5024845;28;20209;-61
2023/03/17 00:29:39;;;;;;;0.10;0.10;;;8.60;99.90;;;;;;5018906;28;20041;-61
2023/03/17 00:32:08;;;;;;;0.20;0.20;;;8.60;99.90;;;;;;5025660;28;20045;-61
2023/03/17 00:34:35;;;;;;;0.10;0.10;;;8.60;99.90;;;;;;5025913;28;20061;-60
2023/03/17 00:37:00;;;;;;;0.10;0.10;;;8.60;99.90;;;;;;5022531;28;20068;-60
2023/03/17 00:39:26;;;;;;;0.95;0.90;;;8.60;99.90;;;;;;5023647;28;20521;-60
2023/03/17 00:41:52;;;;;;;1.05;1.00;;;8.50;99.90;;;;;;5019749;28;20037;-60
2023/03/17 00:44:17;;;;;;;0.17;0.17;;;8.60;99.90;;;;;;5025041;28;20077;-60
2023/03/17 00:46:43;;;;;;;0.30;0.30;;;8.60;99.90;;;;;;5027593;28;20033;-60
2023/03/17 00:49:18;;;;;;;0.13;0.13;;;8.50;99.90;;;;;;5028283;28;20488;-60
2023/03/17 00:51:44;;;;;;;0.10;0.10;;;8.50;99.90;;;;;;5020227;28;20490;-60
2023/03/17 00:54:11;;;;;;;0.20;0.20;;;8.60;99.90;;;;;;5028254;28;20452;-61
2023/03/17 00:56:38;;;;;;;0.10;0.10;;;8.50;99.90;;;;;;5026609;28;20041;-60
2023/03/17 00:59:16;;;;;;;0.10;0.10;;;8.60;99.90;;;;;;5016550;28;20132;-61
2023/03/17 01:01:42;;;;;;;0.10;0.10;;;8.60;99.90;;;;;;5024028;28;20639;-60
2023/03/17 01:04:09;;;;;;;0.50;0.50;;;8.50;99.90;;;;;;5027359;28;20045;-60
2023/03/17 01:06:35;;;;;;;0.10;0.10;;;8.60;99.90;;;;;;5024315;28;20045;-61
2023/03/17 01:09:03;;;;;;;7.47;1.38;;;8.60;99.90;;;;;;5021604;28;20436;-61
2023/03/17 01:11:29;;;;;;;0.75;0.75;;;8.60;99.90;;;;;;5027034;28;20049;-61
2023/03/17 01:13:55;;;;;;;0.28;0.28;;;8.50;99.90;;;;;;5027087;28;20144;-60
2023/03/17 01:16:22;;;;;;;0.52;0.47;;;8.60;99.90;;;;;;5027617;28;20041;-60
2023/03/17 01:18:48;;;;;;;0.32;0.32;;;8.60;99.90;;;;;;5027260;28;20531;-61
2023/03/17 01:21:14;;;;;;;0.30;0.30;;;8.60;99.90;;;;;;5014809;28;20030;-60
2023/03/17 01:23:40;;;;;;;0.10;0.10;;;8.60;99.90;;;;;;5022538;28;20041;-61
2023/03/17 01:26:06;;;;;;;1.48;0.73;;;8.50;99.90;;;;;;5026661;28;20543;-61
2023/03/17 01:28:32;;;;;;;0.43;0.43;;;8.50;99.90;;;;;;5026364;28;20056;-60
2023/03/17 01:30:59;;;;;;;0.10;0.10;;;8.60;99.90;;;;;;5027586;28;20045;-60
2023/03/17 01:33:25;;;;;;;0.90;0.55;;;8.60;99.90;;;;;;5026743;28;20037;-60
2023/03/17 01:35:51;;;;;;;0.47;0.47;;;8.50;99.90;;;;;;5024478;28;20091;-60
2023/03/17 01:38:17;;;;;;;0.10;0.10;;;8.60;99.90;;;;;;5027617;28;20080;-61
2023/03/17 01:40:48;;;;;;;0.10;0.10;;;8.60;99.90;;;;;;5027383;28;20056;-60
2023/03/17 01:43:27;;;;;;;0.05;0.05;;;8.50;99.90;;;;;;5025913;28;20184;-60
2023/03/17 01:46:19;;;;;;;0.30;0.30;;;8.60;99.90;;;;;;5021000;28;20042;-60
2023/03/17 01:49:11;;;;;;;0.10;0.10;;;8.60;99.90;;;;;;5020911;28;20046;-61
2023/03/17 01:51:52;;;;;;;0.13;0.13;;;8.50;99.90;;;;;;5024784;28;20054;-61
2023/03/17 01:54:27;;;;;;;0.10;0.10;;;8.60;99.90;;;;;;5028664;28;20045;-61
2023/03/17 01:57:00;;;;;;;0.20;0.20;;;8.50;99.90;;;;;;5025110;28;20504;-61
2023/03/17 01:59:32;;;;;;;0.68;0.68;;;8.50;99.90;;;;;;5027015;28;20045;-60
2023/03/17 02:02:04;;;;;;;0.40;0.40;;;8.50;99.90;;;;;;5027467;28;20068;-61
2023/03/17 02:04:30;;;;;;;0.50;0.50;;;8.50;99.90;;;;;;5024671;28;20042;-61
2023/03/17 02:06:56;;;;;;;4.78;0.75;;;8.50;99.90;;;;;;5026978;28;20046;-61
2023/03/17 02:09:22;;;;;;;0.10;0.10;;;8.50;99.90;;;;;;5027746;28;20042;-61
2023/03/17 02:11:49;;;;;;;0.00;0.00;;;8.50;99.90;;;;;;5026517;28;20038;-61
2023/03/17 02:14:15;;;;;;;0.28;0.28;;;8.50;99.90;;;;;;5023503;28;20068;-61
2023/03/17 02:16:43;;;;;;;0.10;0.10;;;8.50;99.90;;;;;;5025539;28;20164;-61
2023/03/17 02:19:10;;;;;;;0.80;0.57;;;8.50;99.90;;;;;;5021757;28;20191;-60
2023/03/17 02:21:46;;;;;;;1.30;1.17;;;8.40;99.90;;;;;;5018332;28;20058;-61
2023/03/17 02:24:20;;;;;;;0.32;0.32;;;8.50;99.90;;;;;;5020595;28;20037;-61
2023/03/17 02:26:48;;;;;;;0.00;0.00;;;8.40;99.90;;;;;;5029511;28;20058;-61
2023/03/17 02:29:15;;;;;;;0.80;0.80;;;8.40;99.90;;;;;;5030886;28;20546;-61
2023/03/17 02:31:42;;;;;;;0.20;0.20;;;8.40;99.90;;;;;;5030628;28;20056;-61
2023/03/17 02:34:08;;;;;;;0.00;0.00;;;8.40;99.90;;;;;;5026885;28;20042;-61
2023/03/17 02:36:34;;;;;;;0.43;0.32;;;8.40;99.90;;;;;;5027244;28;20490;-61
2023/03/17 02:38:59;;;;;;;1.27;0.43;;;8.40;99.90;;;;;;5031450;28;20176;-61
2023/03/17 02:41:25;;;;;;;0.32;0.32;;;8.40;99.90;;;;;;5029678;28;20075;-61
2023/03/17 02:43:52;;;;;;;0.45;0.45;;;8.30;99.90;;;;;;5031305;28;20493;-61
2023/03/17 02:46:18;;;;;;;0.25;0.25;;;8.30;99.90;;;;;;5017477;28;20077;-61
2023/03/17 02:48:45;;;;;;;2.85;1.75;;;8.40;99.90;;;;;;5030136;28;20390;-61
2023/03/17 02:51:10;;;;;;;0.25;0.25;;;8.30;99.90;;;;;;5027874;28;20056;-61
2023/03/17 02:53:36;;;;;;;0.10;0.10;;;8.30;99.90;;;;;;5030506;28;20041;-61
2023/03/17 02:56:02;;;;;;;0.10;0.10;;;8.30;99.90;;;;;;5029291;28;20124;-60
2023/03/17 02:58:28;;;;;;;0.10;0.10;;;8.20;99.90;;;;;;5026399;28;20397;-61
2023/03/17 03:00:54;;;;;;;0.10;0.10;;;8.30;99.90;;;;;;5029022;28;20050;-61
2023/03/17 03:03:21;;;;;;;0.30;0.25;;;8.20;99.90;;;;;;5022083;28;20037;-60
2023/03/17 03:05:46;;;;;;;0.20;0.20;;;8.30;99.90;;;;;;5030943;28;20050;-61
2023/03/17 03:08:12;;;;;;;0.30;0.30;;;8.30;99.90;;;;;;5029194;28;20390;-61
2023/03/17 03:10:37;;;;;;;2.42;1.10;;;8.20;99.90;;;;;;5027520;28;20049;-61
2023/03/17 03:13:03;;;;;;;0.63;0.63;;;8.20;99.90;;;;;;5028437;28;20445;-60
2023/03/17 03:15:29;;;;;;;0.10;0.10;;;8.20;99.90;;;;;;5027937;28;20044;-60
2023/03/17 03:17:54;;;;;;;0.10;0.10;;;8.20;99.90;;;;;;5029710;28;20056;-61
2023/03/17 03:20:20;;;;;;;0.10;0.10;;;8.20;99.90;;;;;;5017552;28;20048;-60
2023/03/17 03:22:46;;;;;;;0.10;0.10;;;8.20;99.90;;;;;;5028829;28;20048;-61
2023/03/17 03:25:12;;;;;;;0.10;0.10;;;8.10;99.90;;;;;;5029735;28;20034;-60
2023/03/17 03:27:37;;;;;;;0.30;0.30;;;8.20;99.90;;;;;;5028334;28;20087;-61
2023/03/17 03:30:06;;;;;;;0.47;0.47;;;8.20;99.90;;;;;;5029104;28;20400;-61
2023/03/17 03:32:32;;;;;;;0.40;0.40;;;8.20;99.90;;;;;;5029261;28;20536;-61
2023/03/17 03:34:58;;;;;;;0.35;0.35;;;8.20;99.90;;;;;;5028939;28;20041;-61
2023/03/17 03:37:24;;;;;;;0.20;0.20;;;8.20;99.90;;;;;;5028477;28;20053;-60
2023/03/17 03:39:51;;;;;;;0.10;0.10;;;8.20;99.90;;;;;;5028465;28;20038;-60
2023/03/17 03:42:16;;;;;;;0.00;0.00;;;8.20;99.90;;;;;;5030459;28;20164;-60
2023/03/17 03:44:42;;;;;;;0.22;0.22;;;8.20;99.90;;;;;;5028767;28;20049;-61
2023/03/17 03:47:08;;;;;;;0.08;0.08;;;8.20;99.90;;;;;;5025164;28;20385;-60
2023/03/17 03:49:34;;;;;;;0.10;0.10;;;8.30;99.90;;;;;;5029210;28;20692;-60
2023/03/17 03:51:59;;;;;;;0.30;0.30;;;8.20;99.90;;;;;;5029632;28;20250;-60
2023/03/17 03:54:25;;;;;;;0.20;0.20;;;8.20;99.90;;;;;;5027994;28;20088;-60
2023/03/17 03:56:51;;;;;;;0.63;0.63;;;8.20;99.90;;;;;;5029392;28;20045;-61
2023/03/17 03:59:17;;;;;;;0.10;0.10;;;8.20;99.90;;;;;;5013974;28;20053;-60
2023/03/17 04:01:43;;;;;;;0.10;0.10;;;8.30;99.90;;;;;;5029717;28;20048;-61
2023/03/17 04:04:08;;;;;;;0.30;0.30;;;8.20;99.90;;;;;;5025904;28;20064;-60
2023/03/17 04:06:34;;;;;;;0.10;0.10;;;8.20;99.90;;;;;;5030109;28;20409;-60
2023/03/17 04:08:59;;;;;;;0.90;0.43;;;8.20;99.90;;;;;;5028517;28;20071;-60
2023/03/17 04:11:25;;;;;;;0.15;0.15;;;8.20;99.90;;;;;;5028089;28;20041;-61
2023/03/17 04:13:51;;;;;;;0.10;0.10;;;8.20;99.90;;;;;;5027416;28;20041;-60
2023/03/17 04:16:16;;;;;;;0.10;0.10;;;8.20;99.90;;;;;;5025090;28;20592;-60
2023/03/17 04:18:42;;;;;;;0.20;0.20;;;8.10;99.90;;;;;;5023721;28;20527;-61
2023/03/17 04:21:08;;;;;;;0.50;0.50;;;8.10;99.90;;;;;;5026982;28;20513;-60
2023/03/17 04:23:33;;;;;;;0.50;0.50;;;8.20;99.90;;;;;;5029501;28;20037;-60
2023/03/17 04:25:59;;;;;;;0.20;0.20;;;8.20;99.90;;;;;;5019566;28;20053;-60
2023/03/17 04:28:24;;;;;;;0.20;0.20;;;8.20;99.90;;;;;;5028370;28;20049;-61
2023/03/17 04:30:50;;;;;;;0.20;0.20;;;8.10;99.90;;;;;;5027953;28;20038;-60
2023/03/17 04:33:16;;;;;;;0.03;0.03;;;8.20;99.90;;;;;;5028052;28;20033;-61
2023/03/17 04:35:41;;;;;;;0.00;0.00;;;8.10;99.90;;;;;;5021323;28;20045;-61
2023/03/17 04:38:10;;;;;;;0.00;0.00;;;8.10;99.90;;;;;;5029394;28;20049;-60
2023/03/17 04:40:36;;;;;;;0.10;0.10;;;8.00;99.90;;;;;;5011560;28;20100;-60
2023/03/17 04:43:01;;;;;;;1.00;0.55;;;8.10;99.90;;;;;;5024235;28;20069;-60
2023/03/17 04:45:27;;;;;;;0.25;0.25;;;8.00;99.90;;;;;;5027137;28;20041;-60
2023/03/17 04:47:52;;;;;;;0.10;0.10;;;8.00;99.90;;;;;;5010818;28;20095;-60
2023/03/17 04:50:18;;;;;;;0.10;0.10;;;8.00;99.90;;;;;;5028499;28;20107;-61
2023/03/17 04:52:44;;;;;;;1.85;1.17;;;8.00;99.90;;;;;;5027073;28;20148;-61
2023/03/17 04:55:10;;;;;;;0.20;0.20;;;8.00;99.90;;;;;;5028641;28;20108;-60
2023/03/17 04:57:36;;;;;;;0.10;0.10;;;8.00;99.90;;;;;;5028416;28;20049;-60
2023/03/17 05:00:04;;;;;;;4.85;2.05;;;8.10;99.90;;;;;;5025661;28;20840;-60
2023/03/17 05:02:29;;;;;;;0.10;0.10;;;8.10;99.90;;;;;;5027060;28;20856;-60
2023/03/17 05:04:55;;;;;;;1.08;1.08;;;8.10;99.90;;;;;;5028308;28;20045;-60
2023/03/17 05:07:21;;;;;;;0.30;0.30;;;8.10;99.90;;;;;;5028286;28;20116;-61
2023/03/17 05:09:47;;;;;;;0.10;0.10;;;8.10;99.90;;;;;;5024817;28;20054;-60
2023/03/17 05:12:13;;;;;;;2.45;0.93;;;8.20;99.90;;;;;;5027171;28;20042;-60
2023/03/17 05:14:39;;;;;;;1.20;0.75;;;8.20;99.90;;;;;;5027651;28;20047;-60
2023/03/17 05:17:05;;;;;;;0.00;0.00;;;8.20;99.90;;;;;;5008720;28;20478;-60
2023/03/17 05:19:30;;;;;;;0.10;0.10;;;8.20;99.90;;;;;;5011650;28;20037;-61
2023/03/17 05:21:56;;;;;;;0.63;0.63;;;8.10;99.90;;;;;;5026073;28;20060;-60
2023/03/17 05:24:22;;;;;;;0.10;0.10;;;8.20;99.90;;;;;;5025978;28;20053;-61
2023/03/17 05:26:47;;;;;;;0.10;0.10;;;8.10;99.90;;;;;;5027055;28;20433;-60
2023/03/17 05:29:13;;;;;;;0.00;0.00;;;8.10;99.90;;;;;;5026832;28;20033;-60
2023/03/17 05:31:39;;;;;;;0.10;0.10;;;8.10;99.90;;;;;;5018344;28;20382;-60
2023/03/17 05:34:04;;;;;;;0.10;0.10;;;8.20;99.90;;;;;;5026894;28;20045;-60
2023/03/17 05:36:31;;;;;;;0.00;0.00;;;8.20;99.90;;;;;;5027729;28;20045;-60
2023/03/17 05:38:56;;;;;;;0.28;0.28;;;8.20;99.90;;;;;;5028473;28;20152;-61
2023/03/17 05:41:22;;;;;;;0.00;0.00;;;8.20;99.90;;;;;;5026897;28;20128;-60
2023/03/17 05:43:48;;;;;;;0.03;0.03;;;8.20;99.90;;;;;;5027064;28;20075;-60
2023/03/17 05:46:14;;;;;;;0.10;0.10;;;8.20;99.90;;;;;;5027296;28;20049;-61
2023/03/17 05:48:39;;;;;;;0.10;0.10;;;8.20;99.90;;;;;;5027876;28;20038;-60
2023/03/17 05:51:05;;;;;;;0.10;0.10;;;8.20;99.90;;;;;;5026410;28;20053;-61
2023/03/17 05:53:31;;;;;;;0.10;0.10;;;8.20;99.90;;;;;;5028237;28;20106;-60
2023/03/17 05:55:57;;;;;;;0.10;0.10;;;8.20;99.90;;;;;;5026439;28;20045;-60
2023/03/17 05:58:22;;;;;;;0.30;0.30;;;8.20;99.90;;;;;;5029751;28;20103;-61
2023/03/17 06:00:48;;;;;;;0.10;0.10;;;8.20;99.90;;;;;;5021636;28;20045;-60
2023/03/17 06:03:13;;;;;;;0.10;0.10;;;8.20;99.90;;;;;;5032214;28;20056;-60
2023/03/17 06:05:39;;;;;;;0.10;0.10;;;8.20;99.90;;;;;;5033787;28;20080;-60
2023/03/17 06:08:05;;;;;;;0.17;0.17;;;8.20;99.90;;;;;;5033961;28;20098;-60
2023/03/17 06:10:31;;;;;;;0.10;0.10;;;8.20;99.90;;;;;;5034096;28;20114;-61
2023/03/17 06:12:57;;;;;;;0.00;0.00;;;8.20;99.90;;;;;;5033634;28;20088;-60
2023/03/17 06:15:23;;;;;;;0.10;0.10;;;8.20;99.90;;;;;;5033055;28;20049;-60
2023/03/17 06:17:50;;;;;;;0.30;0.30;;;8.20;99.90;;;;;;5034163;28;20136;-60
2023/03/17 06:20:16;;;;;;;0.38;0.38;;;8.20;99.90;;;;;;5033690;28;20042;-60
2023/03/17 06:22:42;;;;;;;0.20;0.15;;;8.20;99.90;;;;;;5031597;28;20087;-60
2023/03/17 06:25:09;;;;;;;0.10;0.10;;;8.30;99.90;;;;;;5029194;28;20081;-60
2023/03/17 06:27:36;;;;;;;0.35;0.35;;;8.30;99.90;;;;;;5023726;28;20081;-60
2023/03/17 06:30:02;;;;;;;0.10;0.10;;;8.20;99.90;;;;;;5034414;28;20045;-61
2023/03/17 06:32:29;;;;;;;5.50;1.45;;;8.20;99.90;;;;;;5031417;28;20082;-60
2023/03/17 06:34:55;;;;;;;0.10;0.10;;;8.30;99.90;;;;;;5032734;28;20041;-60
2023/03/17 06:37:21;;;;;;;0.00;0.00;;;8.20;99.90;;;;;;5032122;28;20102;-61
2023/03/17 06:39:47;;;;;;;0.55;0.55;;;8.30;99.90;;;;;;5033990;28;20041;-60
2023/03/17 06:42:13;;;;;;;0.40;0.40;;;8.30;99.90;;;;;;5030287;28;20056;-60
2023/03/17 06:44:39;;;;;;;0.40;0.40;;;8.30;99.90;;;;;;5032431;28;20071;-60
2023/03/17 06:47:05;;;;;;;0.52;0.52;;;8.40;99.90;;;;;;5033668;28;20128;-61
2023/03/17 06:49:31;;;;;;;0.43;0.38;;;8.30;99.90;;;;;;5030814;28;20037;-61
2023/03/17 06:51:56;;;;;;;0.10;0.10;;;8.40;99.90;;;;;;5023336;28;20088;-60
2023/03/17 06:54:24;;;;;;;0.10;0.10;;;8.40;99.90;;;;;;5033959;28;20517;-60
2023/03/17 06:56:52;;;;;;;0.10;0.10;;;8.50;99.90;;;;;;5033421;28;20130;-60
2023/03/17 06:59:20;;;;;;;0.00;0.00;;;8.50;99.90;;;;;;5028594;28;20037;-61
2023/03/17 07:01:47;;;;;;;0.73;0.73;;;8.50;99.90;;;;;;5032102;28;20117;-61
2023/03/17 07:04:13;;;;;;;0.10;0.10;;;8.50;99.90;;;;;;5032709;28;20050;-61
2023/03/17 07:06:38;;;;;;;0.05;0.05;;;8.50;99.90;;;;;;5031582;28;20037;-61
2023/03/17 07:09:06;;;;;;;0.00;0.00;;;8.60;99.90;;;;;;5028453;28;20081;-60
2023/03/17 07:11:32;;;;;;;0.10;0.10;;;8.60;99.90;;;;;;5009616;28;20038;-60
2023/03/17 07:13:58;;;;;;;0.35;0.35;;;8.60;99.90;;;;;;5016283;28;20077;-61
2023/03/17 07:16:24;;;;;;;0.00;0.00;;;8.60;99.90;;;;;;5029292;28;20166;-61
2023/03/17 07:18:49;;;;;;;0.30;0.30;;;8.60;99.90;;;;;;5025683;28;20037;-61
2023/03/17 07:21:15;;;;;;;1.85;0.55;;;8.70;99.90;;;;;;5028599;28;20049;-61
2023/03/17 07:23:41;;;;;;;0.10;0.10;;;8.70;99.90;;;;;;5030121;28;20067;-60
2023/03/17 07:26:06;;;;;;;0.10;0.10;;;8.70;99.90;;;;;;5030653;28;20053;-60
2023/03/17 07:28:32;;;;;;;0.10;0.10;;;8.80;99.90;;;;;;5030043;28;20087;-61
2023/03/17 07:30:59;;;;;;;0.10;0.10;;;8.80;99.90;;;;;;5029029;28;20341;-61
2023/03/17 07:33:24;;;;;;;0.00;0.00;;;8.90;99.90;;;;;;5025968;28;20038;-61
2023/03/17 07:35:51;;;;;;;0.10;0.10;;;8.90;99.90;;;;;;5026749;28;20041;-61
2023/03/17 07:38:18;;;;;;;0.30;0.30;;;9.00;99.90;;;;;;5028222;28;20099;-60
2023/03/17 07:40:46;;;;;;;0.43;0.43;;;9.10;99.90;;;;;;5030273;28;20727;-61
2023/03/17 07:43:12;;;;;;;0.20;0.20;;;9.10;99.90;;;;;;5029882;28;20045;-60
2023/03/17 07:45:38;;;;;;;0.10;0.10;;;9.20;99.90;;;;;;5017102;28;20045;-61
2023/03/17 07:48:05;;;;;;;0.30;0.30;;;9.20;99.90;;;;;;5030175;28;20121;-61
2023/03/17 07:50:32;;;;;;;0.10;0.10;;;9.30;99.90;;;;;;5027860;28;20054;-61
2023/03/17 07:52:58;;;;;;;0.10;0.10;;;9.30;99.90;;;;;;5027809;28;20111;-61
2023/03/17 07:55:23;;;;;;;0.10;0.10;;;9.30;99.90;;;;;;5010419;28;20045;-61
2023/03/17 07:57:49;;;;;;;1.75;0.75;;;9.30;99.90;;;;;;5013842;28;20033;-60
2023/03/17 08:00:16;;;;;;;1.38;1.27;;;9.30;99.90;;;;;;5028906;28;20051;-60
2023/03/17 08:02:42;;;;;;;1.45;0.65;;;9.30;99.90;;;;;;5028652;28;20049;-60
2023/03/17 08:05:08;;;;;;;0.00;0.00;;;9.40;99.90;;;;;;5029974;28;20086;-61
2023/03/17 08:07:36;;;;;;;0.40;0.40;;;9.40;99.90;;;;;;5030128;28;20056;-61
2023/03/17 08:10:04;;;;;;;0.10;0.10;;;9.50;99.90;;;;;;5028305;28;20044;-61
2023/03/17 08:12:30;;;;;;;0.10;0.10;;;9.50;99.90;;;;;;5029891;28;20385;-61
2023/03/17 08:14:56;;;;;;;0.10;0.10;;;9.60;99.90;;;;;;5025459;28;20049;-60
2023/03/17 08:17:25;;;;;;;0.10;0.10;;;9.70;99.90;;;;;;5025668;28;20144;-61
2023/03/17 08:19:52;;;;;;;0.00;0.00;;;9.80;99.90;;;;;;5029857;28;20578;-61
2023/03/17 08:22:18;;;;;;;0.13;0.13;;;9.80;99.90;;;;;;5028535;28;20136;-61
2023/03/17 08:24:43;;;;;;;0.10;0.10;;;9.90;99.90;;;;;;5025800;28;20124;-61
2023/03/17 08:27:09;;;;;;;0.03;0.03;;;10.00;99.90;;;;;;5029139;28;20045;-61
2023/03/17 08:29:35;;;;;;;0.22;0.22;;;10.10;99.90;;;;;;5029605;28;20384;-60
2023/03/17 08:32:00;;;;;;;0.10;0.10;;;10.50;99.90;;;;;;5025916;28;20045;-61
2023/03/17 08:34:26;;;;;;;0.43;0.35;;;11.00;99.90;;;;;;5025028;28;20132;-60
2023/03/17 08:36:52;;;;;;;0.10;0.10;;;11.40;99.90;;;;;;5029103;28;20072;-60
2023/03/17 08:39:18;;;;;;;0.00;0.00;;;11.60;99.90;;;;;;5027115;28;20038;-59
2023/03/17 08:41:43;;;;;;;0.17;0.17;;;11.90;99.90;;;;;;5019341;28;20165;-60
2023/03/17 08:44:09;;;;;;;0.10;0.10;;;11.60;99.90;;;;;;5023477;28;20459;-60
2023/03/17 08:46:35;;;;;;;0.45;0.45;;;11.50;99.90;;;;;;5025998;28;20620;-60
2023/03/17 08:49:02;;;;;;;0.10;0.10;;;11.30;99.90;;;;;;5027644;28;20068;-60
2023/03/17 08:51:30;;;;;;;0.00;0.00;;;11.30;99.90;;;;;;5015730;28;20057;-61
2023/03/17 08:53:56;;;;;;;0.17;0.17;;;11.20;99.90;;;;;;5025211;28;20129;-61
2023/03/17 08:56:22;;;;;;;0.30;0.30;;;11.10;99.90;;;;;;5027706;28;20137;-60
2023/03/17 08:58:49;;;;;;;0.10;0.10;;;11.10;99.90;;;;;;5027749;28;20061;-60
2023/03/17 09:01:16;;;;;;;0.00;0.00;;;11.10;99.90;;;;;;5009530;28;20103;-60
2023/03/17 09:03:42;;;;;;;1.23;0.65;;;11.00;99.90;;;;;;5024038;28;20078;-60
2023/03/17 09:06:11;;;;;;;0.10;0.10;;;11.10;99.90;;;;;;5028454;28;20041;-60
2023/03/17 09:08:39;;;;;;;0.00;0.00;;;11.10;99.90;;;;;;5029026;28;20056;-60
2023/03/17 09:11:07;;;;;;;1.00;0.50;;;11.20;99.90;;;;;;5029333;28;20049;-60
2023/03/17 09:13:34;;;;;;;0.00;0.00;;;11.40;99.90;;;;;;5024359;28;20048;-60
2023/03/17 09:16:00;;;;;;;0.10;0.10;;;11.50;99.90;;;;;;5025587;28;20080;-60
2023/03/17 09:18:26;;;;;;;0.20;0.20;;;11.60;99.90;;;;;;5024965;28;20053;-60
2023/03/17 09:20:52;;;;;;;0.10;0.10;;;11.80;99.90;;;;;;5026679;28;20084;-60
2023/03/17 09:23:18;;;;;;;0.20;0.20;;;11.90;99.90;;;;;;5027687;28;20084;-60
2023/03/17 09:25:43;;;;;;;0.50;0.50;;;12.10;99.90;;;;;;5028205;28;20729;-60
2023/03/17 09:28:12;;;;;;;0.28;0.28;;;12.10;99.90;;;;;;5027635;28;20645;-60
2023/03/17 09:30:41;;;;;;;0.38;0.38;;;12.20;99.90;;;;;;5015375;28;20053;-60
2023/03/17 09:33:09;;;;;;;0.13;0.13;;;12.30;99.90;;;;;;5022716;28;20038;-60
2023/03/17 09:35:34;;;;;;;0.10;0.10;;;12.90;99.90;;;;;;5027802;28;20049;-60
2023/03/17 09:38:00;;;;;;;0.38;0.38;;;12.90;99.90;;;;;;5026574;28;20672;-60
2023/03/17 09:40:31;;;;;;;0.08;0.08;;;13.00;99.90;;;;;;5024958;28;20108;-60
2023/03/17 09:45:38;;;;;;;0.10;0.10;;;14.30;99.90;;;;;;5083200;22;20117;-64
2023/03/17 09:48:35;;;;;;;0.10;0.10;;;15.10;99.90;;;;;;4998158;28;20078;-64
2023/03/17 09:51:09;;;;;;;0.40;0.40;;;15.90;99.90;;;;;;4989418;28;20137;-64
2023/03/17 09:53:53;;;;;;;0.90;0.90;;;16.50;99.90;;;;;;4991477;28;20440;-64
2023/03/17 09:56:19;;;;;;;0.10;0.10;;;17.00;99.90;;;;;;4989253;28;20093;-64
2023/03/17 09:59:08;;;;;;;0.28;0.28;;;17.50;99.90;;;;;;4988553;28;20054;-64
2023/03/17 10:01:35;;;;;;;0.28;0.28;;;18.00;99.90;;;;;;4994492;28;20119;-65
2023/03/17 10:04:02;;;;;;;1.35;0.80;;;17.90;99.90;;;;;;4999906;28;20145;-64
2023/03/17 10:06:32;;;;;;;0.30;0.30;;;17.70;99.90;;;;;;5008258;28;20483;-64
2023/03/17 10:09:38;;;;;;;0.40;0.40;;;17.90;99.90;;;;;;5000103;28;20061;-65
2023/03/17 10:12:23;;;;;;;0.00;0.00;;;18.10;99.90;;;;;;4979896;28;20049;-65
2023/03/17 10:15:13;;;;;;;0.45;0.45;;;17.70;99.90;;;;;;5007489;28;20054;-65
2023/03/17 10:17:40;;;;;;;0.10;0.10;;;17.30;99.90;;;;;;5008110;28;20050;-65
2023/03/17 10:20:15;;;;;;;0.30;0.30;;;16.70;99.90;;;;;;4992592;28;20510;-65
2023/03/17 10:22:46;;;;;;;0.30;0.30;;;16.60;99.90;;;;;;4993426;28;20042;-64
2023/03/17 10:25:17;;;;;;;0.75;0.40;;;16.60;99.90;;;;;;4990436;28;20388;-64
2023/03/17 10:27:47;;;;;;;0.50;0.50;;;16.50;99.90;;;;;;4999691;28;20045;-64
2023/03/17 10:30:19;;;;;;;0.40;0.40;;;16.40;99.90;;;;;;4993769;28;20432;-64
2023/03/17 10:32:45;;;;;;;0.15;0.15;;;16.20;99.90;;;;;;4989855;28;20202;-64
2023/03/17 10:35:12;;;;;;;0.35;0.35;;;16.10;99.90;;;;;;5005292;28;20129;-64
2023/03/17 10:37:38;;;;;;;0.15;0.15;;;15.80;99.90;;;;;;4999053;28;20128;-65
2023/03/17 10:40:09;;;;;;;0.10;0.10;;;15.70;99.90;;;;;;4994832;28;20044;-64
2023/03/17 10:42:46;;;;;;;0.28;0.28;;;15.70;99.90;;;;;;4994392;28;20101;-64
2023/03/17 10:45:26;;;;;;;0.30;0.30;;;15.70;99.90;;;;;;5006082;28;20136;-64
2023/03/17 10:47:56;;;;;;;0.00;0.00;;;15.70;99.90;;;;;;5000519;28;20133;-65
2023/03/17 10:50:31;;;;;;;0.75;0.75;;;16.00;99.90;;;;;;5005507;28;20056;-64
2023/03/17 10:53:01;;;;;;;0.63;0.63;;;16.00;99.90;;;;;;5009037;28;20042;-64
2023/03/17 10:55:36;;;;;;;0.25;0.25;;;15.90;99.90;;;;;;5009260;28;20057;-64
2023/03/17 10:58:12;;;;;;;0.10;0.10;;;16.10;99.90;;;;;;5004255;28;20129;-64
2023/03/17 11:00:45;;;;;;;0.30;0.30;;;16.10;99.90;;;;;;4999469;28;20504;-63
2023/03/17 11:03:19;;;;;;;0.65;0.25;;;16.00;99.90;;;;;;5007697;28;20049;-64
2023/03/17 11:06:15;;;;;;;9.13;1.05;;;16.10;99.90;;;;;;4999407;28;20045;-64
2023/03/17 11:08:52;;;;;;;0.32;0.32;;;16.10;99.90;;;;;;4997038;28;20058;-64
2023/03/17 11:11:30;;;;;;;0.20;0.20;;;16.20;99.90;;;;;;5004971;28;20057;-64
2023/03/17 11:14:10;;;;;;;0.65;0.65;;;16.50;99.90;;;;;;5005127;28;20065;-64
2023/03/17 11:16:59;;;;;;;1.25;0.47;;;16.50;99.90;;;;;;5004468;28;20561;-63
2023/03/17 11:19:47;;;;;;;0.05;0.05;;;16.50;99.90;;;;;;5001175;28;20050;-64
2023/03/17 11:22:19;;;;;;;0.00;0.00;;;16.50;99.90;;;;;;4992213;28;20100;-63
2023/03/17 11:24:57;;;;;;;0.10;0.10;;;16.60;99.90;;;;;;5006889;28;20048;-64
2023/03/17 11:27:31;;;;;;;0.17;0.17;;;16.70;99.90;;;;;;5012203;28;20064;-63
2023/03/17 11:30:25;;;;;;;0.22;0.22;;;16.70;99.90;;;;;;4998353;28;20121;-64
2023/03/17 11:32:56;;;;;;;0.20;0.20;;;16.70;99.90;;;;;;4985409;28;20054;-63
2023/03/17 11:35:25;;;;;;;8.65;0.73;;;16.90;99.90;;;;;;5010261;28;20492;-64
2023/03/17 11:38:08;;;;;;;5.55;2.83;;;17.00;99.90;;;;;;5012555;28;20081;-63
2023/03/17 11:41:04;;;;;;;0.55;0.55;;;17.00;99.90;;;;;;4999213;28;20065;-63
2023/03/17 11:43:58;;;;;;;0.20;0.20;;;17.10;99.90;;;;;;5004795;28;20058;-63
2023/03/17 11:46:35;;;;;;;0.17;0.17;;;17.30;99.90;;;;;;5011417;28;20484;-63
2023/03/17 11:49:19;;;;;;;0.30;0.30;;;17.60;99.90;;;;;;4996315;28;20469;-63
2023/03/17 11:52:02;;;;;;;3.30;1.98;;;17.80;99.90;;;;;;5000309;28;20050;-64
2023/03/17 11:54:40;;;;;;;0.40;0.40;;;17.70;99.90;;;;;;5004188;28;20049;-64
2023/03/17 11:57:15;;;;;;;0.10;0.10;;;17.10;99.90;;;;;;5000965;28;20404;-64
2023/03/17 11:59:55;;;;;;;0.08;0.08;;;17.00;99.90;;;;;;5001926;28;20041;-64
2023/03/17 12:02:30;;;;;;;3.42;0.95;;;17.00;99.90;;;;;;5001370;28;20115;-63
2023/03/17 12:05:08;;;;;;;0.20;0.20;;;16.90;99.90;;;;;;5005690;28;20562;-63
2023/03/17 12:07:46;;;;;;;0.30;0.30;;;16.80;99.90;;;;;;4992347;28;20510;-64
2023/03/17 12:10:21;;;;;;;0.50;0.50;;;16.60;99.90;;;;;;4996623;28;20038;-64
2023/03/17 12:12:59;;;;;;;0.13;0.13;;;16.50;99.90;;;;;;5002126;28;20153;-64
2023/03/17 12:15:30;;;;;;;0.10;0.10;;;16.40;99.90;;;;;;5003258;28;20034;-64
2023/03/17 12:18:08;;;;;;;0.88;0.88;;;16.30;99.90;;;;;;5002581;28;20046;-64
2023/03/17 12:20:45;;;;;;;1.30;1.20;;;16.40;99.90;;;;;;5010622;28;20038;-64
2023/03/17 12:23:32;;;;;;;0.08;0.08;;;16.40;99.90;;;;;;5002832;28;20416;-64
2023/03/17 12:26:32;;;;;;;0.28;0.28;;;16.60;99.90;;;;;;5009392;28;20124;-64
2023/03/17 12:29:23;;;;;;;0.08;0.08;;;16.40;99.90;;;;;;5003354;28;20058;-64
2023/03/17 12:32:00;;;;;;;0.08;0.08;;;16.40;99.90;;;;;;5008397;28;20053;-65
2023/03/17 12:34:35;;;;;;;0.00;0.00;;;16.60;99.90;;;;;;4995144;28;20111;-63
2023/03/17 12:37:01;;;;;;;0.40;0.40;;;16.60;99.90;;;;;;5007387;28;20381;-64
2023/03/17 12:39:33;;;;;;;0.65;0.65;;;16.50;99.90;;;;;;5011281;28;20030;-64
2023/03/17 12:42:24;;;;;;;0.55;0.55;;;16.30;99.90;;;;;;5009433;28;20405;-64
2023/03/17 12:45:30;;;;;;;0.03;0.03;;;16.20;99.90;;;;;;5003811;28;20441;-64
2023/03/17 12:48:15;;;;;;;0.15;0.15;;;16.00;99.90;;;;;;4997890;28;20054;-64
2023/03/17 12:51:11;;;;;;;0.22;0.22;;;15.80;99.90;;;;;;5000750;28;20133;-64
2023/03/17 12:53:55;;;;;;;2.53;1.45;;;15.60;99.90;;;;;;5008351;28;20060;-64
2023/03/17 12:56:25;;;;;;;0.20;0.20;;;15.60;99.90;;;;;;5010157;28;20148;-64
2023/03/17 12:58:53;;;;;;;0.00;0.00;;;15.60;99.90;;;;;;5006400;28;20053;-64
2023/03/17 13:01:27;;;;;;;0.65;0.65;;;15.40;99.90;;;;;;4992556;28;20371;-64
2023/03/17 13:04:01;;;;;;;0.45;0.45;;;15.60;99.90;;;;;;5009123;28;20050;-64
2023/03/17 13:06:29;;;;;;;;;;;15.70;99.90;;;;;;5004326;28;20045;-64